Time;durP1;ratioP1;P1;durP2;ratioP2;P2;SDS_P1;SDS_P2;PMS_P1;PMS_P2;Temp;Humidity;BMP_temperature;BMP_pressure;BME280_temperature;BME280_humidity;BME280_pressure;Samples;Min_cycle;Max_cycle;Signal;HPM_P1;HPM_P2
2023/10/17 00:01:44;;;;;;;10.13;6.85;;;14.20;99.90;;;;;;5014530;28;20798;-69
2023/10/17 00:06:45;;;;;;;10.88;6.38;;;14.00;99.90;;;;;;5014433;28;20111;-69
2023/10/17 00:09:21;;;;;;;10.73;6.63;;;;;;;;;;5014249;28;20052;-70
2023/10/17 00:11:58;;;;;;;13.05;6.25;;;14.00;99.90;;;;;;5013991;28;20107;-69
2023/10/17 00:14:35;;;;;;;9.18;6.28;;;14.10;99.90;;;;;;5014456;28;20444;-69
2023/10/17 00:17:03;;;;;;;8.43;5.95;;;14.00;99.90;;;;;;5014014;28;20047;-70
2023/10/17 00:19:32;;;;;;;8.77;5.78;;;13.80;99.90;;;;;;5014232;28;20552;-70
2023/10/17 00:21:59;;;;;;;8.52;5.75;;;13.80;99.90;;;;;;5031452;28;20501;-69
2023/10/17 00:24:25;;;;;;;9.43;5.90;;;13.90;99.90;;;;;;5013862;28;20128;-69
2023/10/17 00:26:51;;;;;;;9.73;6.28;;;13.70;99.90;;;;;;5014201;28;20156;-69
2023/10/17 00:29:17;;;;;;;10.13;5.78;;;13.80;99.90;;;;;;5014763;28;20589;-70
2023/10/17 00:31:46;;;;;;;11.32;5.85;;;13.70;99.90;;;;;;5014821;28;20492;-70
2023/10/17 00:34:21;;;;;;;8.60;5.43;;;14.00;99.90;;;;;;5015252;28;20079;-70
2023/10/17 00:36:51;;;;;;;7.65;5.22;;;13.90;99.90;;;;;;5014529;28;20065;-69
2023/10/17 00:39:31;;;;;;;8.85;5.30;;;14.20;99.90;;;;;;5013833;28;20493;-70
2023/10/17 00:44:36;;;;;;;8.60;5.68;;;13.80;99.90;;;;;;5013940;28;20041;-70
2023/10/17 00:47:04;;;;;;;8.57;5.63;;;14.10;99.90;;;;;;5014383;28;20037;-70
2023/10/17 00:49:40;;;;;;;12.10;5.25;;;13.70;99.90;;;;;;5013627;28;20088;-69
2023/10/17 00:52:16;;;;;;;8.38;5.03;;;13.60;99.90;;;;;;5013588;28;20064;-70
2023/10/17 00:54:42;;;;;;;9.10;5.53;;;;;;;;;;5013841;28;20067;-70
2023/10/17 00:57:09;;;;;;;9.27;5.95;;;13.80;99.90;;;;;;5017209;28;20052;-70
2023/10/17 00:59:35;;;;;;;12.98;5.70;;;14.10;99.90;;;;;;5035332;28;20118;-69
2023/10/17 01:02:08;;;;;;;11.10;4.85;;;14.00;99.90;;;;;;5017101;28;20053;-70
2023/10/17 01:04:40;;;;;;;9.88;5.18;;;14.00;99.90;;;;;;5001350;28;20037;-70
2023/10/17 01:07:05;;;;;;;10.55;5.90;;;13.90;99.90;;;;;;5017555;28;20060;-70
2023/10/17 01:09:34;;;;;;;8.07;4.93;;;13.90;99.90;;;;;;5017676;28;20489;-70
2023/10/17 01:12:01;;;;;;;6.80;4.95;;;13.60;99.90;;;;;;5018811;28;20087;-71
2023/10/17 01:14:30;;;;;;;10.82;5.20;;;13.90;99.90;;;;;;5003948;28;20041;-71
2023/10/17 01:16:57;;;;;;;8.20;4.72;;;13.80;99.90;;;;;;5002592;28;20472;-70
2023/10/17 01:19:23;;;;;;;9.00;4.57;;;;;;;;;;5017518;28;20416;-70
2023/10/17 01:21:49;;;;;;;8.95;4.82;;;13.80;99.90;;;;;;5017205;28;20037;-69
2023/10/17 01:24:15;;;;;;;15.40;5.20;;;13.60;99.90;;;;;;5017295;28;20040;-70
2023/10/17 01:26:45;;;;;;;7.47;4.45;;;;;;;;;;5000789;28;20042;-70
2023/10/17 01:29:11;;;;;;;8.48;4.53;;;;;;;;;;5016920;28;20631;-70
2023/10/17 01:31:44;;;;;;;9.32;4.45;;;13.60;99.90;;;;;;5034858;28;20099;-70
2023/10/17 01:34:11;;;;;;;6.30;3.90;;;13.80;99.90;;;;;;5016969;28;20091;-69
2023/10/17 01:36:37;;;;;;;10.65;4.38;;;13.90;99.90;;;;;;5000728;28;20044;-70
2023/10/17 01:39:08;;;;;;;7.53;4.55;;;;;;;;;;5016868;28;20042;-70
2023/10/17 01:41:34;;;;;;;10.50;4.68;;;;;;;;;;5034774;28;20409;-69
2023/10/17 01:44:01;;;;;;;7.10;4.95;;;14.10;99.90;;;;;;5016779;28;20069;-70
2023/10/17 01:46:29;;;;;;;7.05;4.10;;;14.00;99.90;;;;;;5016825;28;20037;-70
2023/10/17 01:49:10;;;;;;;9.98;5.00;;;13.50;99.90;;;;;;5016737;28;20038;-70
2023/10/17 01:51:36;;;;;;;6.75;4.05;;;13.70;99.90;;;;;;5016722;28;20081;-69
2023/10/17 01:54:07;;;;;;;5.40;3.85;;;14.00;99.90;;;;;;5000330;28;20041;-70
2023/10/17 01:56:33;;;;;;;9.40;3.70;;;13.70;99.90;;;;;;5016737;28;20045;-69
2023/10/17 01:59:09;;;;;;;7.53;3.95;;;;;;;;;;5000414;28;20041;-70
2023/10/17 02:01:36;;;;;;;7.57;4.03;;;13.50;99.90;;;;;;5016460;28;20073;-69
2023/10/17 02:04:03;;;;;;;8.93;4.28;;;;;;;;;;5016788;28;20444;-69
2023/10/17 02:06:31;;;;;;;7.38;3.70;;;13.50;99.90;;;;;;5016098;28;20158;-70
2023/10/17 02:08:58;;;;;;;6.95;3.58;;;;;;;;;;4999829;28;20048;-70
2023/10/17 02:11:25;;;;;;;13.63;4.10;;;13.20;99.90;;;;;;5016280;28;20057;-70
2023/10/17 02:13:52;;;;;;;7.55;3.80;;;;;;;;;;5016477;28;20525;-70
2023/10/17 02:16:17;;;;;;;7.60;3.53;;;13.20;99.90;;;;;;5016520;28;20128;-70
2023/10/17 02:18:44;;;;;;;9.70;4.30;;;;;;;;;;5016435;28;20128;-69
2023/10/17 02:21:12;;;;;;;8.48;4.18;;;;;;;;;;5016123;28;20045;-70
2023/10/17 02:23:43;;;;;;;6.57;3.85;;;13.30;99.90;;;;;;5016016;28;20052;-70
2023/10/17 02:26:12;;;;;;;7.80;4.15;;;;;;;;;;4999749;28;20168;-70
2023/10/17 02:28:47;;;;;;;9.75;4.35;;;;;;;;;;5016123;28;20452;-69
2023/10/17 02:31:14;;;;;;;9.77;4.20;;;13.20;99.90;;;;;;5015909;28;20037;-69
2023/10/17 02:33:43;;;;;;;8.50;4.25;;;;;;;;;;5015574;28;20049;-70
2023/10/17 02:36:12;;;;;;;9.23;4.30;;;12.90;99.90;;;;;;5015819;28;20087;-70
2023/10/17 02:38:41;;;;;;;9.20;4.40;;;13.00;99.90;;;;;;5034177;28;20532;-70
2023/10/17 02:41:18;;;;;;;8.90;4.25;;;13.00;99.90;;;;;;5016833;28;20045;-70
2023/10/17 02:43:45;;;;;;;7.38;4.35;;;13.20;99.90;;;;;;5016665;28;20041;-70
2023/10/17 02:46:14;;;;;;;6.50;3.47;;;13.00;99.90;;;;;;5033545;28;20594;-69
2023/10/17 02:48:40;;;;;;;9.45;4.20;;;12.90;99.90;;;;;;5015746;28;20112;-69
2023/10/17 02:53:51;;;;;;;7.68;4.30;;;;;;;;;;5015262;28;20074;-70
2023/10/17 02:56:21;;;;;;;7.57;3.58;;;;;;;;;;5015170;28;20052;-70
2023/10/17 02:58:48;;;;;;;7.93;3.63;;;;;;;;;;5015306;28;20128;-69
2023/10/17 03:01:14;;;;;;;6.38;3.05;;;12.90;99.90;;;;;;5015648;28;20042;-70
2023/10/17 03:03:40;;;;;;;11.25;4.68;;;12.80;99.90;;;;;;5016621;28;20394;-70
2023/10/17 03:06:06;;;;;;;7.78;3.40;;;12.70;99.90;;;;;;5016586;28;20033;-70
2023/10/17 03:08:36;;;;;;;6.65;3.17;;;;;;;;;;5015976;28;20091;-70
2023/10/17 03:11:07;;;;;;;7.13;3.03;;;;;;;;;;5014939;28;20124;-70
2023/10/17 03:13:40;;;;;;;5.22;3.10;;;;;;;;;;5014936;28;20045;-70
2023/10/17 03:19:05;;;;;;;5.85;2.97;;;12.40;99.90;;;;;;4971247;28;20512;-70
2023/10/17 03:21:34;;;;;;;6.20;3.60;;;12.50;99.90;;;;;;4998392;28;20072;-69
2023/10/17 03:24:05;;;;;;;10.20;3.47;;;12.40;99.90;;;;;;5015162;28;20075;-69
2023/10/17 03:26:54;;;;;;;5.93;2.97;;;;;;;;;;5032794;28;20037;-70
2023/10/17 03:29:19;;;;;;;8.90;3.42;;;12.40;99.90;;;;;;5015102;28;20053;-70
2023/10/17 03:31:53;;;;;;;6.03;2.90;;;12.30;99.90;;;;;;5014573;28;20033;-69
2023/10/17 03:34:29;;;;;;;4.25;2.92;;;;;;;;;;4998371;28;20073;-69
2023/10/17 03:36:55;;;;;;;5.03;2.90;;;12.40;99.90;;;;;;5014691;28;20125;-70
2023/10/17 03:39:28;;;;;;;10.70;3.42;;;12.40;99.90;;;;;;5014721;28;20485;-70
2023/10/17 03:41:56;;;;;;;5.10;3.35;;;12.60;99.90;;;;;;5014317;28;20049;-70
2023/10/17 03:44:29;;;;;;;7.90;3.30;;;12.70;99.90;;;;;;5014257;28;20497;-69
2023/10/17 03:46:59;;;;;;;6.43;3.80;;;12.30;99.90;;;;;;5015494;28;20077;-70
2023/10/17 03:49:36;;;;;;;7.10;3.58;;;12.60;99.90;;;;;;5015622;28;20044;-70
2023/10/17 03:52:07;;;;;;;8.75;3.88;;;12.20;99.90;;;;;;5014844;28;20084;-69
2023/10/17 03:54:38;;;;;;;6.18;4.07;;;12.40;99.90;;;;;;5014570;28;20041;-70
2023/10/17 03:57:14;;;;;;;8.32;4.22;;;;;;;;;;5014400;28;20077;-69
2023/10/17 03:59:41;;;;;;;9.55;5.05;;;;;;;;;;5014368;28;20041;-69
2023/10/17 04:02:18;;;;;;;8.60;5.00;;;12.20;99.90;;;;;;5014130;28;20120;-68
2023/10/17 04:04:54;;;;;;;13.98;6.95;;;12.20;99.90;;;;;;4997896;28;20041;-69
2023/10/17 04:07:26;;;;;;;12.48;7.00;;;12.20;99.90;;;;;;5014116;28;20085;-69
2023/10/17 04:09:53;;;;;;;10.10;7.28;;;12.20;99.90;;;;;;5031750;28;20048;-69
2023/10/17 04:12:31;;;;;;;12.77;7.53;;;;;;;;;;5014194;28;20077;-69
2023/10/17 04:15:04;;;;;;;14.82;7.18;;;12.30;99.90;;;;;;5014391;28;20528;-69
2023/10/17 04:17:31;;;;;;;10.23;6.28;;;;;;;;;;5014076;28;20092;-69
2023/10/17 04:20:10;;;;;;;9.10;5.72;;;12.00;99.90;;;;;;5013939;28;20046;-69
2023/10/17 04:22:38;;;;;;;10.10;5.63;;;12.30;99.90;;;;;;5014095;28;20047;-69
2023/10/17 04:25:20;;;;;;;9.77;5.80;;;;;;;;;;5013837;28;20037;-70
2023/10/17 04:27:54;;;;;;;12.30;6.97;;;;;;;;;;5013988;28;20084;-70
2023/10/17 04:30:29;;;;;;;12.18;6.43;;;;;;;;;;5013894;28;20473;-70
2023/10/17 04:33:08;;;;;;;12.30;6.35;;;;;;;;;;5013961;28;20452;-70
2023/10/17 04:35:35;;;;;;;10.00;5.18;;;12.10;99.90;;;;;;5013855;28;20077;-70
2023/10/17 04:38:11;;;;;;;7.88;5.32;;;11.80;99.90;;;;;;5013651;28;20497;-69
2023/10/17 04:40:37;;;;;;;8.13;4.95;;;12.00;99.90;;;;;;4997407;28;20132;-69
2023/10/17 04:45:55;;;;;;;9.35;5.72;;;;;;;;;;5013689;28;20056;-70
2023/10/17 04:48:32;;;;;;;6.22;5.10;;;;;;;;;;5014044;28;20460;-69
2023/10/17 04:51:11;;;;;;;11.95;5.72;;;;;;;;;;5013497;28;20050;-69
2023/10/17 04:53:40;;;;;;;9.52;5.70;;;11.90;99.90;;;;;;5013605;28;20057;-69
2023/10/17 04:58:40;;;;;;;7.47;5.13;;;;;;;;;;5032523;28;20589;-69
2023/10/17 05:03:43;;;;;;;10.90;5.13;;;;;;;;;;5032981;28;20089;-69
2023/10/17 06:17:24;;;;;;;5.88;3.40;;;12.60;99.90;;;;;;5015525;28;20038;-70
2023/10/17 06:19:58;;;;;;;4.97;2.75;;;12.60;99.90;;;;;;4998356;28;20044;-69
2023/10/17 06:33:24;;;;;;;9.77;3.15;;;;;;;;;;4989844;28;20045;-68
2023/10/17 06:35:55;;;;;;;5.90;2.30;;;;;;;;;;5006874;28;20088;-69
2023/10/17 06:38:27;;;;;;;4.50;2.35;;;12.50;99.90;;;;;;5013086;28;20041;-69
2023/10/17 06:40:53;;;;;;;6.72;2.60;;;;;;;;;;4997385;28;20040;-68
2023/10/17 06:43:28;;;;;;;4.50;2.40;;;;;;;;;;5010526;28;20073;-71
2023/10/17 06:45:57;;;;;;;4.38;2.83;;;;;;;;;;5035050;28;20163;-70
2023/10/17 06:48:32;;;;;;;8.07;2.85;;;;;;;;;;5012412;28;20053;-66
2023/10/17 06:53:52;;;;;;;4.45;2.22;;;;;;;;;;5014177;28;20072;-71
2023/10/17 06:56:18;;;;;;;5.00;2.30;;;;;;;;;;5048965;28;20037;-71
2023/10/17 06:58:44;;;;;;;5.78;2.10;;;12.50;99.90;;;;;;5024046;28;20509;-71
2023/10/17 07:01:24;;;;;;;6.22;1.90;;;12.80;99.90;;;;;;5005014;28;20044;-71
2023/10/17 07:03:54;;;;;;;4.43;2.35;;;12.50;99.90;;;;;;5029484;28;20038;-72
2023/10/17 07:06:24;;;;;;;4.10;2.30;;;;;;;;;;5024578;28;20095;-71
2023/10/17 07:08:50;;;;;;;5.70;2.20;;;12.40;99.90;;;;;;5026034;28;20052;-70
2023/10/17 07:13:54;;;;;;;5.15;2.22;;;12.40;99.90;;;;;;5023666;28;21700;-71
2023/10/17 07:16:33;;;;;;;5.75;1.90;;;12.40;99.90;;;;;;5015684;28;20037;-71
2023/10/17 07:19:09;;;;;;;4.35;2.28;;;12.80;99.90;;;;;;5015221;28;20041;-70
2023/10/17 07:24:23;;;;;;;6.43;2.63;;;;;;;;;;5015039;28;20049;-71
2023/10/17 07:26:52;;;;;;;3.78;2.33;;;11.10;99.90;;;;;;5032044;28;20037;-71
2023/10/17 07:29:22;;;;;;;5.90;1.95;;;13.10;99.90;;;;;;5012868;28;20108;-70
2023/10/17 07:32:00;;;;;;;3.90;2.15;;;12.80;99.90;;;;;;5035862;28;20086;-71
2023/10/17 07:34:33;;;;;;;5.13;2.72;;;12.80;99.90;;;;;;5032736;28;20053;-71
2023/10/17 07:39:38;;;;;;;3.70;2.20;;;;;;;;;;5015338;28;20056;-71
2023/10/17 07:42:04;;;;;;;5.65;2.80;;;;;;;;;;5015297;28;20041;-70
2023/10/17 07:44:34;;;;;;;10.40;2.65;;;13.00;99.90;;;;;;5015469;28;20049;-70
2023/10/17 07:47:19;;;;;;;3.88;2.33;;;12.90;99.90;;;;;;5018165;28;20420;-70
2023/10/17 07:49:47;;;;;;;5.63;2.40;;;12.70;99.90;;;;;;5035669;28;20045;-71
2023/10/17 07:52:15;;;;;;;4.93;2.97;;;12.90;99.90;;;;;;5035105;28;20489;-71
2023/10/17 07:54:45;;;;;;;7.43;3.17;;;12.70;99.90;;;;;;5035167;28;20047;-71
2023/10/17 07:57:17;;;;;;;8.93;3.55;;;13.00;99.90;;;;;;5034894;28;20120;-70
2023/10/17 07:59:52;;;;;;;10.60;2.78;;;12.90;99.90;;;;;;5035578;28;20055;-71
2023/10/17 08:02:20;;;;;;;4.03;2.63;;;;;;;;;;5035352;28;20049;-71
2023/10/17 08:04:48;;;;;;;6.07;2.78;;;;;;;;;;5030727;28;20072;-71
2023/10/17 08:07:14;;;;;;;6.60;2.78;;;13.10;99.90;;;;;;5048306;28;20046;-71
2023/10/17 08:09:50;;;;;;;4.78;2.83;;;;;;;;;;4999460;28;20091;-71
2023/10/17 08:12:21;;;;;;;6.00;2.42;;;13.40;99.90;;;;;;5048513;28;20037;-70
2023/10/17 08:14:56;;;;;;;5.53;2.90;;;;;;;;;;5015475;28;20497;-70
2023/10/17 08:17:23;;;;;;;9.88;2.92;;;;;;;;;;5040542;28;20050;-70
2023/10/17 08:20:38;;;;;;;8.48;2.97;;;13.50;99.90;;;;;;5001798;28;20380;-70
2023/10/17 08:22:54;;;;;;;5.00;2.55;;;;;;;;;;5005691;28;20053;-70
2023/10/17 08:25:25;;;;;;;6.55;3.55;;;;;;;;;;5007552;28;20048;-71
2023/10/17 08:27:54;;;;;;;4.97;2.22;;;;;;;;;;5011334;28;20060;-70
2023/10/17 08:30:34;;;;;;;6.15;2.40;;;;;;;;;;5011009;28;20582;-69
2023/10/17 08:35:39;;;;;;;5.05;2.30;;;;;;;;;;4995938;28;20063;-69
2023/10/17 08:38:12;;;;;;;5.50;2.60;;;;;;;;;;5011508;28;20429;-70
2023/10/17 08:43:06;;;;;;;5.90;2.45;;;14.60;99.90;;;;;;4994781;28;20096;-70
2023/10/17 08:45:39;;;;;;;5.35;2.50;;;14.80;99.90;;;;;;5011494;28;20048;-71
2023/10/17 08:48:11;;;;;;;6.47;2.40;;;;;;;;;;5012107;28;20129;-71
2023/10/17 08:50:39;;;;;;;5.05;2.22;;;14.70;99.90;;;;;;4994820;28;20042;-70
2023/10/17 08:55:44;;;;;;;5.65;2.10;;;15.10;99.90;;;;;;5028150;28;20045;-71
2023/10/17 08:58:10;;;;;;;6.68;1.85;;;15.50;99.90;;;;;;5027709;28;20030;-71
2023/10/17 09:03:35;;;;;;;8.23;1.80;;;15.50;99.90;;;;;;5027416;28;20390;-71
2023/10/17 09:08:56;;;;;;;4.63;1.58;;;;;;;;;;5027777;28;20433;-70
2023/10/17 09:11:41;;;;;;;3.45;1.63;;;;;;;;;;5010789;28;20046;-71
2023/10/17 09:14:24;;;;;;;2.53;1.20;;;15.80;99.90;;;;;;4994532;28;20555;-70
2023/10/17 09:17:00;;;;;;;7.28;2.05;;;16.00;99.90;;;;;;4996039;28;20034;-70
2023/10/17 09:19:26;;;;;;;7.90;2.35;;;15.90;99.90;;;;;;4998520;28;20042;-71
2023/10/17 09:21:53;;;;;;;4.05;1.10;;;;;;;;;;5041624;28;20059;-71
2023/10/17 09:24:35;;;;;;;3.55;2.15;;;16.20;99.90;;;;;;5014721;28;20037;-72
2023/10/17 09:27:06;;;;;;;4.10;1.30;;;;;;;;;;5016079;28;20045;-69
2023/10/17 09:29:41;;;;;;;3.05;1.55;;;;;;;;;;5017761;28;20072;-71
2023/10/17 09:32:08;;;;;;;5.47;1.50;;;;;;;;;;5017613;28;20037;-69
2023/10/17 09:34:36;;;;;;;3.13;1.48;;;16.60;99.90;;;;;;5017772;28;20048;-69
2023/10/17 09:37:05;;;;;;;4.10;1.70;;;16.70;99.90;;;;;;5017769;28;20080;-69
2023/10/17 09:39:34;;;;;;;4.32;1.85;;;16.70;99.90;;;;;;5035669;28;20089;-70
2023/10/17 09:42:00;;;;;;;4.43;1.70;;;;;;;;;;5017941;28;20128;-70
2023/10/17 09:44:26;;;;;;;4.60;1.60;;;;;;;;;;5017633;28;20048;-71
2023/10/17 09:46:56;;;;;;;6.20;1.98;;;;;;;;;;5019106;28;20049;-70
2023/10/17 09:49:29;;;;;;;8.57;1.98;;;16.70;99.90;;;;;;5035032;28;20340;-70
2023/10/17 09:51:55;;;;;;;4.60;1.88;;;;;;;;;;5017556;28;20041;-71
2023/10/17 09:54:22;;;;;;;9.60;3.10;;;16.90;99.90;;;;;;5018201;28;20053;-71
2023/10/17 09:56:50;;;;;;;7.35;4.18;;;16.80;99.90;;;;;;5018390;28;20045;-71
2023/10/17 09:59:24;;;;;;;10.50;3.90;;;17.00;99.90;;;;;;5001338;28;20037;-70
2023/10/17 10:01:51;;;;;;;7.50;3.92;;;16.80;99.90;;;;;;5017031;28;20029;-70
2023/10/17 10:04:20;;;;;;;8.90;4.72;;;17.00;99.90;;;;;;5050069;28;20064;-70
2023/10/17 10:06:46;;;;;;;8.32;3.72;;;17.20;99.90;;;;;;5017288;28;20048;-70
2023/10/17 10:09:14;;;;;;;5.93;2.97;;;17.10;99.90;;;;;;5016959;28;20033;-71
2023/10/17 10:11:51;;;;;;;5.65;3.58;;;17.10;99.90;;;;;;5017381;28;20041;-70
2023/10/17 10:14:23;;;;;;;6.75;3.45;;;17.20;99.90;;;;;;5017025;28;20033;-71
2023/10/17 10:17:05;;;;;;;6.82;3.10;;;17.40;99.90;;;;;;5014697;28;20048;-72
2023/10/17 10:19:40;;;;;;;5.85;2.85;;;17.30;99.90;;;;;;5016773;28;20137;-71
2023/10/17 10:22:07;;;;;;;4.18;2.83;;;;;;;;;;5017065;28;20037;-72
2023/10/17 10:24:34;;;;;;;4.45;2.03;;;17.30;99.90;;;;;;5060537;28;20500;-71
2023/10/17 10:29:54;;;;;;;4.03;1.85;;;17.50;99.90;;;;;;5054788;28;20045;-71
2023/10/17 10:32:33;;;;;;;5.22;1.52;;;17.50;99.90;;;;;;5036397;28;20045;-72
2023/10/17 10:34:59;;;;;;;1.95;1.42;;;17.50;99.90;;;;;;5035777;28;20037;-71
2023/10/17 10:37:25;;;;;;;3.60;1.25;;;17.50;99.90;;;;;;5036500;28;20397;-71
2023/10/17 10:40:24;;;;;;;3.90;1.40;;;17.50;99.90;;;;;;5034630;28;20041;-71
2023/10/17 10:43:00;;;;;;;5.47;1.50;;;17.50;99.90;;;;;;4992728;28;20060;-71
2023/10/17 10:45:32;;;;;;;5.43;1.50;;;17.60;99.90;;;;;;5027605;28;20041;-71
2023/10/17 10:48:01;;;;;;;3.25;1.55;;;17.70;99.90;;;;;;5045240;28;20112;-71
2023/10/17 10:50:34;;;;;;;2.80;1.33;;;17.70;99.90;;;;;;5009654;28;20124;-71
2023/10/17 10:53:01;;;;;;;2.53;1.52;;;17.70;99.90;;;;;;5027398;28;20079;-71
2023/10/17 10:55:28;;;;;;;3.90;1.50;;;;;;;;;;5044904;28;20088;-71
2023/10/17 10:57:54;;;;;;;2.58;1.42;;;17.50;99.90;;;;;;5006577;28;20098;-71
2023/10/17 11:00:20;;;;;;;4.30;1.85;;;17.90;99.90;;;;;;5014053;28;20045;-71
2023/10/17 11:02:46;;;;;;;2.78;1.63;;;18.10;99.90;;;;;;4997399;28;20044;-71
2023/10/17 11:05:15;;;;;;;4.40;1.42;;;18.00;99.90;;;;;;5016196;28;20056;-71
2023/10/17 11:07:41;;;;;;;1.08;0.85;;;17.90;99.90;;;;;;5016696;28;20088;-71
2023/10/17 11:10:10;;;;;;;2.88;1.10;;;18.10;99.90;;;;;;4999659;28;20171;-70
2023/10/17 11:12:37;;;;;;;3.67;0.90;;;18.00;99.90;;;;;;5003104;28;20033;-72
2023/10/17 11:15:18;;;;;;;4.28;1.55;;;18.30;99.90;;;;;;5016810;28;20451;-71
2023/10/17 11:17:48;;;;;;;2.70;0.90;;;;;;;;;;5033771;28;20036;-71
2023/10/17 11:20:17;;;;;;;1.33;0.80;;;18.10;99.90;;;;;;5032227;28;20041;-71
2023/10/17 11:22:44;;;;;;;3.53;0.70;;;18.30;99.90;;;;;;5015717;28;20136;-71
2023/10/17 11:25:27;;;;;;;3.95;1.05;;;18.10;99.90;;;;;;5031602;28;20299;-71
2023/10/17 11:28:00;;;;;;;1.80;0.77;;;18.20;99.90;;;;;;4996307;28;20049;-71
2023/10/17 11:30:32;;;;;;;2.72;0.90;;;18.20;99.90;;;;;;5042467;28;20037;-70
2023/10/17 11:33:05;;;;;;;3.17;0.80;;;18.10;99.90;;;;;;5046876;28;20041;-71
2023/10/17 11:35:34;;;;;;;6.88;1.10;;;18.30;99.90;;;;;;5049276;28;20037;-71
2023/10/17 11:38:01;;;;;;;5.32;1.13;;;18.50;99.90;;;;;;5048653;28;20116;-70
2023/10/17 11:40:30;;;;;;;3.33;1.52;;;18.40;99.90;;;;;;4999006;28;20048;-71
2023/10/17 11:43:12;;;;;;;2.50;0.82;;;18.50;99.90;;;;;;5015626;28;20045;-71
2023/10/17 11:45:40;;;;;;;2.63;0.73;;;18.50;99.90;;;;;;5048712;28;20050;-71
2023/10/17 11:48:33;;;;;;;2.38;1.08;;;18.50;99.90;;;;;;5033527;28;20045;-71
2023/10/17 11:51:17;;;;;;;2.78;0.77;;;18.60;99.90;;;;;;5015315;28;20077;-70
2023/10/17 11:54:22;;;;;;;5.85;1.05;;;18.70;99.90;;;;;;5047160;28;20034;-70
2023/10/17 11:56:48;;;;;;;2.72;1.02;;;;;;;;;;4936542;29;20051;-71
2023/10/17 11:59:21;;;;;;;3.17;0.80;;;;;;;;;;5018392;28;20096;-71
2023/10/17 12:01:52;;;;;;;1.00;0.70;;;18.50;99.90;;;;;;5048210;28;20041;-71
2023/10/17 12:04:18;;;;;;;1.95;0.80;;;18.50;99.90;;;;;;5015034;28;20049;-71
2023/10/17 12:06:47;;;;;;;3.20;1.02;;;18.60;99.90;;;;;;5033180;28;20037;-71
2023/10/17 12:11:50;;;;;;;3.53;1.05;;;18.60;99.90;;;;;;5048601;28;20111;-71
2023/10/17 12:14:19;;;;;;;2.28;0.88;;;18.60;99.90;;;;;;5048193;28;20041;-70
2023/10/17 12:16:55;;;;;;;2.25;0.93;;;18.40;99.90;;;;;;5015262;28;20049;-69
2023/10/17 12:19:28;;;;;;;6.10;1.20;;;18.70;99.90;;;;;;5015214;28;20033;-70
2023/10/17 12:21:54;;;;;;;;;;;18.90;99.90;;;;;;4998366;28;20404;-70
2023/10/17 12:24:24;;;;;;;2.60;0.80;;;18.80;99.90;;;;;;5014963;28;19944;-70
2023/10/17 12:26:53;;;;;;;2.55;1.02;;;18.70;99.90;;;;;;5014789;28;20496;-70
2023/10/17 12:29:19;;;;;;;4.38;1.00;;;18.80;99.90;;;;;;5014515;28;20037;-70
2023/10/17 12:31:45;;;;;;;3.10;0.55;;;18.90;99.90;;;;;;5015103;28;20041;-70
2023/10/17 12:34:15;;;;;;;4.43;1.77;;;18.80;99.90;;;;;;4998611;28;20513;-70
2023/10/17 12:36:41;;;;;;;2.10;0.98;;;18.90;99.90;;;;;;5015188;28;20044;-70
2023/10/17 12:39:07;;;;;;;3.13;0.90;;;18.80;99.90;;;;;;5014814;28;20037;-70
2023/10/17 12:41:34;;;;;;;2.95;1.10;;;18.70;99.90;;;;;;5014407;28;20038;-70
2023/10/17 12:44:00;;;;;;;4.18;1.10;;;18.70;99.90;;;;;;5032341;28;20037;-69
2023/10/17 12:46:25;;;;;;;2.40;1.05;;;18.80;99.90;;;;;;5014538;28;20033;-69
2023/10/17 12:48:51;;;;;;;1.58;0.55;;;18.70;99.90;;;;;;4998208;28;20092;-70
2023/10/17 12:51:20;;;;;;;1.58;0.90;;;18.80;99.90;;;;;;5015317;28;20091;-70
2023/10/17 12:53:46;;;;;;;1.40;0.77;;;18.90;99.90;;;;;;5019112;28;20049;-70
2023/10/17 12:56:12;;;;;;;3.33;1.27;;;18.80;99.90;;;;;;5019017;28;20421;-70
2023/10/17 12:58:38;;;;;;;4.95;0.85;;;18.60;99.90;;;;;;5018556;28;20041;-70
2023/10/17 13:01:04;;;;;;;3.30;0.90;;;18.90;99.90;;;;;;5018571;28;20643;-70
2023/10/17 13:03:36;;;;;;;3.75;1.20;;;18.80;99.90;;;;;;5018221;28;20045;-69
2023/10/17 13:06:02;;;;;;;4.28;0.93;;;18.80;99.90;;;;;;5002017;28;20046;-70
2023/10/17 13:08:28;;;;;;;2.95;1.35;;;18.90;99.90;;;;;;5018418;28;20049;-70
2023/10/17 13:10:55;;;;;;;2.42;1.08;;;18.80;99.90;;;;;;5001707;28;20041;-69
2023/10/17 13:13:21;;;;;;;4.13;1.10;;;18.90;99.90;;;;;;5019903;28;20048;-69
2023/10/17 13:15:48;;;;;;;3.47;0.88;;;18.90;99.90;;;;;;5020480;28;20253;-70
2023/10/17 13:18:14;;;;;;;3.70;1.25;;;18.80;99.90;;;;;;5018859;28;20400;-69
2023/10/17 13:20:48;;;;;;;3.25;1.30;;;;;;;;;;4998516;28;20042;-70
2023/10/17 13:23:16;;;;;;;5.32;1.38;;;18.70;99.90;;;;;;5005458;28;20064;-69
2023/10/17 13:25:43;;;;;;;1.98;1.10;;;18.80;99.90;;;;;;5016949;28;20540;-70
2023/10/17 13:28:10;;;;;;;2.92;1.10;;;18.80;99.90;;;;;;5017730;28;20042;-69
2023/10/17 13:30:36;;;;;;;6.93;2.22;;;;;;;;;;5017507;28;20416;-70
2023/10/17 13:33:02;;;;;;;4.47;1.10;;;18.90;99.90;;;;;;5014922;28;20493;-70
2023/10/17 13:35:28;;;;;;;2.72;1.25;;;18.70;99.90;;;;;;5017888;28;20467;-70
2023/10/17 13:37:55;;;;;;;5.47;1.00;;;;;;;;;;5017085;28;20045;-70
2023/10/17 13:40:23;;;;;;;4.10;1.10;;;18.90;99.90;;;;;;5017708;28;20059;-70
2023/10/17 13:42:53;;;;;;;3.60;1.20;;;18.80;99.90;;;;;;5001973;28;20381;-70
2023/10/17 13:45:22;;;;;;;3.17;0.90;;;18.70;99.90;;;;;;5017587;28;20038;-70
2023/10/17 13:47:55;;;;;;;1.73;0.98;;;18.70;99.90;;;;;;5051522;28;20053;-70
2023/10/17 13:50:21;;;;;;;3.08;1.50;;;18.70;99.90;;;;;;5000392;28;20501;-70
2023/10/17 13:52:48;;;;;;;1.92;0.90;;;18.60;99.90;;;;;;5016425;28;20045;-70
2023/10/17 13:55:17;;;;;;;3.60;1.40;;;18.60;99.90;;;;;;5016715;28;20041;-70
2023/10/17 13:57:42;;;;;;;3.67;1.58;;;18.50;99.90;;;;;;5016738;28;20042;-70
2023/10/17 14:00:21;;;;;;;1.92;1.15;;;18.60;99.90;;;;;;5016658;28;20133;-70
2023/10/17 14:02:49;;;;;;;4.00;1.70;;;18.60;99.90;;;;;;5015934;28;20049;-70
2023/10/17 14:05:19;;;;;;;4.63;1.60;;;18.80;99.90;;;;;;5015903;28;20041;-69
2023/10/17 14:07:48;;;;;;;3.80;1.35;;;18.70;99.90;;;;;;4999302;28;20523;-68
2023/10/17 14:10:14;;;;;;;4.10;1.48;;;18.60;99.90;;;;;;5016040;28;20113;-69
2023/10/17 14:12:41;;;;;;;3.13;1.50;;;18.70;99.90;;;;;;5015974;28;20427;-69
2023/10/17 14:15:10;;;;;;;2.42;1.40;;;18.60;99.90;;;;;;5016356;28;20037;-69
2023/10/17 14:17:36;;;;;;;3.83;1.67;;;18.70;99.90;;;;;;5016201;28;20037;-69
2023/10/17 14:20:14;;;;;;;3.55;1.17;;;18.60;99.90;;;;;;5016294;28;20116;-70
2023/10/17 14:26:00;;;;;;;3.97;1.48;;;18.30;99.90;;;;;;5015979;28;20052;-69
2023/10/17 14:28:21;;;;;;;4.57;1.63;;;;;;;;;;5016158;28;20436;-69
2023/10/17 14:30:49;;;;;;;4.00;1.63;;;18.50;99.90;;;;;;5016088;28;20409;-70
2023/10/17 14:33:15;;;;;;;2.67;1.40;;;18.40;99.90;;;;;;5015720;28;20566;-69
2023/10/17 14:35:43;;;;;;;2.35;1.27;;;;;;;;;;5015884;28;20033;-70
2023/10/17 14:38:10;;;;;;;5.28;1.60;;;18.60;99.90;;;;;;5015961;28;20091;-70
2023/10/17 14:40:35;;;;;;;3.22;1.45;;;18.30;99.90;;;;;;5015754;28;20196;-69
2023/10/17 14:43:02;;;;;;;5.30;1.80;;;18.40;99.90;;;;;;5015178;28;20478;-70
2023/10/17 14:45:28;;;;;;;4.60;1.88;;;;;;;;;;5016045;28;20048;-70
2023/10/17 14:47:55;;;;;;;2.85;1.40;;;;;;;;;;5015506;28;20102;-69
2023/10/17 14:50:20;;;;;;;12.30;6.13;;;18.30;99.90;;;;;;5015269;28;20038;-68
2023/10/17 14:52:46;;;;;;;6.65;2.20;;;18.40;99.90;;;;;;5015541;28;20033;-69
2023/10/17 14:55:15;;;;;;;5.55;1.35;;;18.30;99.90;;;;;;5015345;28;20590;-72
2023/10/17 14:57:43;;;;;;;3.10;1.50;;;18.30;99.90;;;;;;5015241;28;20116;-71
2023/10/17 15:00:14;;;;;;;3.65;1.48;;;18.30;99.90;;;;;;5015427;28;20037;-71
2023/10/17 15:02:40;;;;;;;2.38;1.40;;;18.20;99.90;;;;;;4998699;28;20132;-70
2023/10/17 15:05:11;;;;;;;86.75;23.92;;;18.10;99.90;;;;;;4998669;28;20091;-70
2023/10/17 15:07:38;;;;;;;47.83;16.77;;;18.50;99.90;;;;;;5014199;28;20091;-70
2023/10/17 15:10:11;;;;;;;7.57;2.95;;;18.30;99.90;;;;;;4998535;28;20516;-69
2023/10/17 15:12:40;;;;;;;6.25;1.98;;;18.20;99.90;;;;;;5015155;28;20041;-69
2023/10/17 15:15:10;;;;;;;3.28;1.20;;;18.00;99.90;;;;;;5014584;28;20370;-70
2023/10/17 15:17:37;;;;;;;6.18;1.63;;;18.00;99.90;;;;;;5015116;28;20033;-70
2023/10/17 15:20:03;;;;;;;3.00;1.20;;;17.90;99.90;;;;;;5015132;28;20088;-70
2023/10/17 15:22:28;;;;;;;3.10;1.40;;;17.90;99.90;;;;;;5014904;28;20073;-69
2023/10/17 15:24:55;;;;;;;2.97;1.23;;;17.80;99.90;;;;;;5015104;28;20527;-70
2023/10/17 15:27:21;;;;;;;4.47;1.60;;;17.80;99.90;;;;;;5014928;28;20389;-70
2023/10/17 15:29:47;;;;;;;5.43;1.40;;;17.70;99.90;;;;;;5013488;28;20037;-70
2023/10/17 15:32:12;;;;;;;4.20;1.20;;;17.60;99.90;;;;;;5014459;28;20520;-69
2023/10/17 15:34:38;;;;;;;6.20;1.80;;;;;;;;;;5014033;28;20041;-69
2023/10/17 15:37:06;;;;;;;3.03;1.05;;;17.70;99.90;;;;;;5030411;28;20045;-66
2023/10/17 15:39:32;;;;;;;6.10;1.00;;;;;;;;;;5031127;28;20049;-70
2023/10/17 15:41:58;;;;;;;8.05;1.35;;;;;;;;;;5010572;28;20124;-69